Time;durP1;ratioP1;P1;durP2;ratioP2;P2;SDS_P1;SDS_P2;PMS_P1;PMS_P2;Temp;Humidity;BMP_temperature;BMP_pressure;BME280_temperature;BME280_humidity;BME280_pressure;Samples;Min_cycle;Max_cycle;Signal;HPM_P1;HPM_P2
2021/08/19 00:00:33;;;;;;;4.72;2.40;;;;;;;;;;5108070;28;20054;-70
2021/08/19 00:02:59;;;;;;;5.05;2.25;;;;;;;;;;5110969;28;20067;-70
2021/08/19 00:05:26;;;;;;;4.85;2.15;;;;;;;;;;5110827;28;20054;-70
2021/08/19 00:07:52;;;;;;;3.65;2.13;;;;;;;;;;5108186;28;20484;-70
2021/08/19 00:10:22;;;;;;;4.88;2.10;;;;;;;;;;5110227;28;20048;-70
2021/08/19 00:12:48;;;;;;;4.28;2.20;;;;;;;;;;5109498;28;20043;-70
2021/08/19 00:15:16;;;;;;;4.13;2.17;;;;;;;;;;5111400;28;20056;-70
2021/08/19 00:17:43;;;;;;;4.05;2.30;;;;;;;;;;5111565;28;20056;-70
2021/08/19 00:20:10;;;;;;;5.43;2.35;;;;;;;;;;5113774;28;20059;-70
2021/08/19 00:22:37;;;;;;;4.22;2.22;;;;;;;;;;5115276;28;20043;-70
2021/08/19 00:25:04;;;;;;;6.32;2.50;;;;;;;;;;5094944;28;20500;-70
2021/08/19 00:27:31;;;;;;;3.42;1.92;;;;;;;;;;5094910;28;20523;-70
2021/08/19 00:29:57;;;;;;;4.57;2.42;;;;;;;;;;5095022;28;20055;-70
2021/08/19 00:32:25;;;;;;;6.63;2.90;;;;;;;;;;5094868;28;20048;-71
2021/08/19 00:34:51;;;;;;;4.75;2.22;;;;;;;;;;5094632;28;20052;-70
2021/08/19 00:37:18;;;;;;;6.32;2.83;;;;;;;;;;5095015;28;20048;-70
2021/08/19 00:39:45;;;;;;;4.50;2.35;;;;;;;;;;5094811;28;20048;-70
2021/08/19 00:42:13;;;;;;;5.65;2.58;;;;;;;;;;5094727;28;20052;-70
2021/08/19 00:44:40;;;;;;;4.65;2.50;;;;;;;;;;5094505;28;20428;-70
2021/08/19 00:47:08;;;;;;;4.57;2.72;;;;;;;;;;5094891;28;20082;-70
2021/08/19 00:49:37;;;;;;;4.70;2.55;;;;;;;;;;5094493;28;20059;-70
2021/08/19 00:52:04;;;;;;;4.72;2.20;;;;;;;;;;5098151;28;20464;-70
2021/08/19 00:54:31;;;;;;;4.25;2.30;;;;;;;;;;5113669;28;20047;-70
2021/08/19 00:56:58;;;;;;;6.03;2.78;;;;;;;;;;5114718;28;20043;-70
2021/08/19 00:59:27;;;;;;;4.28;1.83;;;;;;;;;;5114766;28;20052;-70
2021/08/19 01:01:54;;;;;;;4.40;2.60;;;;;;;;;;5114772;28;20043;-70
2021/08/19 01:04:20;;;;;;;4.82;2.17;;;;;;;;;;5114803;28;20058;-70
2021/08/19 01:06:48;;;;;;;5.75;2.53;;;;;;;;;;5114718;28;20051;-71
2021/08/19 01:09:14;;;;;;;5.95;2.72;;;;;;;;;;5114904;28;20070;-70
2021/08/19 01:11:43;;;;;;;3.80;1.88;;;;;;;;;;5113848;28;20074;-70
2021/08/19 01:14:10;;;;;;;6.00;2.65;;;;;;;;;;5113768;28;20043;-70
2021/08/19 01:16:36;;;;;;;4.65;2.35;;;;;;;;;;5114442;28;20047;-70
2021/08/19 01:19:03;;;;;;;4.30;2.35;;;;;;;;;;5114346;28;20654;-70
2021/08/19 01:21:30;;;;;;;3.83;2.15;;;;;;;;;;5114477;27;20180;-70
2021/08/19 01:23:58;;;;;;;5.93;2.83;;;;;;;;;;5114115;27;20058;-70
2021/08/19 01:26:25;;;;;;;5.07;2.42;;;;;;;;;;5114075;28;20047;-70
2021/08/19 01:28:55;;;;;;;7.13;2.10;;;;;;;;;;5114246;28;20400;-70
2021/08/19 01:31:24;;;;;;;5.18;2.38;;;;;;;;;;5113686;28;20407;-70
2021/08/19 01:33:50;;;;;;;5.90;2.45;;;;;;;;;;5114323;28;20384;-70
2021/08/19 01:36:17;;;;;;;5.13;3.05;;;;;;;;;;5114199;28;20083;-70
2021/08/19 01:38:44;;;;;;;4.85;2.40;;;;;;;;;;5114057;28;20472;-70
2021/08/19 01:41:11;;;;;;;5.05;2.28;;;;;;;;;;5113936;28;20052;-70
2021/08/19 01:43:39;;;;;;;4.32;2.05;;;;;;;;;;5113943;28;20357;-70
2021/08/19 01:46:08;;;;;;;4.93;2.20;;;;;;;;;;5113863;28;20093;-70
2021/08/19 01:48:34;;;;;;;5.40;2.85;;;;;;;;;;5113672;28;20054;-70
2021/08/19 01:51:01;;;;;;;4.47;2.60;;;;;;;;;;5113796;28;20051;-70
2021/08/19 01:53:27;;;;;;;5.20;2.25;;;;;;;;;;5113219;28;20047;-70
2021/08/19 01:55:55;;;;;;;5.32;2.50;;;;;;;;;;5113569;28;20400;-70
2021/08/19 01:58:22;;;;;;;4.72;2.30;;;;;;;;;;5113836;28;20048;-70
2021/08/19 02:00:49;;;;;;;5.55;2.80;;;;;;;;;;5113362;28;20051;-70
2021/08/19 02:03:17;;;;;;;3.75;2.40;;;;;;;;;;5113479;28;20226;-70
2021/08/19 02:05:48;;;;;;;5.18;2.30;;;;;;;;;;5113367;28;20511;-70
2021/08/19 02:08:16;;;;;;;3.58;1.80;;;;;;;;;;5113380;28;20052;-70
2021/08/19 02:10:42;;;;;;;4.55;2.58;;;;;;;;;;5113107;28;20054;-70
2021/08/19 02:13:09;;;;;;;4.22;2.22;;;;;;;;;;5112267;28;20365;-70
2021/08/19 02:15:36;;;;;;;3.72;2.13;;;;;;;;;;5112313;28;20062;-70
2021/08/19 02:18:02;;;;;;;3.83;2.05;;;;;;;;;;5113196;28;20055;-70
2021/08/19 02:20:30;;;;;;;5.18;2.30;;;;;;;;;;5112984;28;20647;-70
2021/08/19 02:22:58;;;;;;;4.60;2.30;;;;;;;;;;5113124;28;20044;-70
2021/08/19 02:25:25;;;;;;;3.85;2.35;;;;;;;;;;5113188;28;20120;-70
2021/08/19 02:27:52;;;;;;;4.30;2.55;;;;;;;;;;5113308;28;20058;-70
2021/08/19 02:30:18;;;;;;;3.83;2.00;;;;;;;;;;5112819;28;20048;-70
2021/08/19 02:32:45;;;;;;;4.13;2.17;;;;;;;;;;5112749;28;20053;-70
2021/08/19 02:35:12;;;;;;;6.20;2.80;;;;;;;;;;5112526;28;20438;-70
2021/08/19 02:37:40;;;;;;;4.88;2.00;;;;;;;;;;5113046;28;20059;-70
2021/08/19 02:40:08;;;;;;;4.43;2.10;;;;;;;;;;5113004;28;20395;-70
2021/08/19 02:42:34;;;;;;;3.83;2.13;;;;;;;;;;5112073;28;20047;-70
2021/08/19 02:45:01;;;;;;;3.42;1.60;;;;;;;;;;5112947;28;20530;-70
2021/08/19 02:47:27;;;;;;;4.97;2.10;;;;;;;;;;5112298;28;20062;-70
2021/08/19 02:49:54;;;;;;;5.22;2.75;;;;;;;;;;5112769;28;20048;-70
2021/08/19 02:52:21;;;;;;;5.90;2.53;;;;;;;;;;5112630;28;20055;-70
2021/08/19 02:54:49;;;;;;;5.97;2.60;;;;;;;;;;5112569;28;20368;-70
2021/08/19 02:57:16;;;;;;;4.03;1.98;;;;;;;;;;5112509;28;20133;-70
2021/08/19 02:59:42;;;;;;;4.53;2.15;;;;;;;;;;5112645;28;20051;-70
2021/08/19 03:02:08;;;;;;;4.82;2.40;;;;;;;;;;5112342;28;20039;-70
2021/08/19 03:04:35;;;;;;;5.45;2.05;;;;;;;;;;5112669;28;20052;-70
2021/08/19 03:07:01;;;;;;;6.63;2.35;;;;;;;;;;5112160;28;20050;-70
2021/08/19 03:09:28;;;;;;;3.50;2.03;;;;;;;;;;5112497;28;20052;-70
2021/08/19 03:11:56;;;;;;;6.32;2.40;;;;;;;;;;5112226;28;20055;-70
2021/08/19 03:14:22;;;;;;;5.28;2.30;;;;;;;;;;5111005;28;20043;-70
2021/08/19 03:16:49;;;;;;;5.40;2.20;;;;;;;;;;5111706;28;20491;-70
2021/08/19 03:19:15;;;;;;;5.35;2.30;;;;;;;;;;5111967;28;20060;-70
2021/08/19 03:21:43;;;;;;;5.43;2.63;;;;;;;;;;5112466;28;20047;-70
2021/08/19 03:24:09;;;;;;;4.75;2.42;;;;;;;;;;5111872;28;20047;-70
2021/08/19 03:26:36;;;;;;;4.47;1.88;;;;;;;;;;5112127;28;20058;-70
2021/08/19 03:29:03;;;;;;;4.53;2.58;;;;;;;;;;5112123;28;20464;-70
2021/08/19 03:31:30;;;;;;;7.93;4.03;;;;;;;;;;5112083;28;20047;-70
2021/08/19 03:33:57;;;;;;;6.43;3.10;;;;;;;;;;5111953;28;20269;-69
2021/08/19 03:36:25;;;;;;;4.95;3.20;;;;;;;;;;5112239;28;20068;-69
2021/08/19 03:38:51;;;;;;;4.05;2.60;;;;;;;;;;5112197;28;20043;-70
2021/08/19 03:41:18;;;;;;;4.15;2.78;;;;;;;;;;5112270;28;20055;-69
2021/08/19 03:43:45;;;;;;;5.00;2.60;;;;;;;;;;5111493;28;20044;-70
2021/08/19 03:46:14;;;;;;;5.95;2.60;;;;;;;;;;5111612;28;20810;-69
2021/08/19 03:48:40;;;;;;;5.45;3.10;;;;;;;;;;5111853;28;20055;-70
2021/08/19 03:51:09;;;;;;;4.22;2.53;;;;;;;;;;5111718;28;20415;-69
2021/08/19 03:53:36;;;;;;;5.00;2.50;;;;;;;;;;5113047;28;20048;-70
2021/08/19 03:56:03;;;;;;;6.30;2.58;;;;;;;;;;5116091;28;20054;-69
2021/08/19 03:58:29;;;;;;;3.58;1.88;;;;;;;;;;5115903;28;20070;-69
2021/08/19 04:00:56;;;;;;;4.25;2.45;;;;;;;;;;5115702;28;20055;-69
2021/08/19 04:03:24;;;;;;;4.03;2.30;;;;;;;;;;5115427;28;20059;-71
2021/08/19 04:05:50;;;;;;;3.97;2.35;;;;;;;;;;5115425;27;20059;-71
2021/08/19 04:08:17;;;;;;;7.88;2.97;;;;;;;;;;5115670;28;20059;-71
2021/08/19 04:10:43;;;;;;;3.67;2.28;;;;;;;;;;5115504;28;20050;-71
2021/08/19 04:13:10;;;;;;;5.03;2.40;;;;;;;;;;5115232;28;20035;-70
2021/08/19 04:15:36;;;;;;;4.72;2.20;;;;;;;;;;5111124;28;20043;-70
2021/08/19 04:18:03;;;;;;;5.10;2.90;;;;;;;;;;5114594;28;20468;-71
2021/08/19 04:20:31;;;;;;;4.18;2.38;;;;;;;;;;5114694;28;20054;-70
2021/08/19 04:22:57;;;;;;;4.53;2.35;;;;;;;;;;5112241;28;20075;-71
2021/08/19 04:25:24;;;;;;;5.32;2.35;;;;;;;;;;5114723;28;20437;-70
2021/08/19 04:27:50;;;;;;;3.28;1.70;;;;;;;;;;5114985;28;20058;-71
2021/08/19 04:30:17;;;;;;;4.95;2.50;;;;;;;;;;5114694;28;20055;-70
2021/08/19 04:32:43;;;;;;;4.03;2.20;;;;;;;;;;5113890;28;20051;-70
2021/08/19 04:35:11;;;;;;;3.63;1.80;;;;;;;;;;5110676;28;20039;-70
2021/08/19 04:37:39;;;;;;;5.18;2.28;;;;;;;;;;5112657;28;20055;-70
2021/08/19 04:40:06;;;;;;;4.32;2.25;;;;;;;;;;5112459;28;20511;-70
2021/08/19 04:42:33;;;;;;;5.68;1.80;;;;;;;;;;5103132;28;20373;-70
2021/08/19 04:45:00;;;;;;;4.57;2.10;;;;;;;;;;5107965;28;20503;-70
2021/08/19 04:47:26;;;;;;;7.28;2.70;;;;;;;;;;5112420;27;20515;-70
2021/08/19 04:49:53;;;;;;;3.55;2.00;;;;;;;;;;5106350;27;20457;-70
2021/08/19 04:52:19;;;;;;;7.03;2.50;;;;;;;;;;5113908;28;20052;-70
2021/08/19 04:54:47;;;;;;;4.28;2.33;;;;;;;;;;5111519;28;20054;-70
2021/08/19 04:57:13;;;;;;;4.55;2.30;;;;;;;;;;5109736;28;20039;-70
2021/08/19 04:59:40;;;;;;;6.90;2.38;;;;;;;;;;5114983;28;20384;-70
2021/08/19 05:02:06;;;;;;;5.20;2.28;;;;;;;;;;5114555;28;20403;-70
2021/08/19 05:04:33;;;;;;;5.78;2.35;;;;;;;;;;5104577;28;20055;-70
2021/08/19 05:06:59;;;;;;;3.63;2.03;;;;;;;;;;5093838;28;20048;-70
2021/08/19 05:09:26;;;;;;;7.43;1.98;;;;;;;;;;5094065;28;20056;-70
2021/08/19 05:11:53;;;;;;;5.25;1.98;;;;;;;;;;5094170;28;20048;-70
2021/08/19 05:14:20;;;;;;;3.45;2.03;;;;;;;;;;5093303;28;20055;-70
2021/08/19 05:16:46;;;;;;;3.50;2.00;;;;;;;;;;5109333;28;20063;-70
2021/08/19 05:19:13;;;;;;;3.80;2.10;;;;;;;;;;5113353;28;20040;-70
2021/08/19 05:21:40;;;;;;;6.95;2.55;;;;;;;;;;5106082;28;20420;-70
2021/08/19 05:24:06;;;;;;;4.97;2.60;;;;;;;;;;5106455;28;20475;-70
2021/08/19 05:26:33;;;;;;;4.22;2.28;;;;;;;;;;5113409;28;20418;-70
2021/08/19 05:29:01;;;;;;;4.00;1.95;;;;;;;;;;5113756;28;20508;-70
2021/08/19 05:31:27;;;;;;;4.88;2.30;;;;;;;;;;5113502;28;20051;-70
2021/08/19 05:33:54;;;;;;;4.75;2.60;;;;;;;;;;5113309;28;20075;-70
2021/08/19 05:36:21;;;;;;;3.90;2.03;;;;;;;;;;5113893;28;20143;-70
2021/08/19 05:38:47;;;;;;;4.70;2.60;;;;;;;;;;5114157;28;20048;-69
2021/08/19 05:41:14;;;;;;;5.95;2.20;;;;;;;;;;5114110;28;20054;-70
2021/08/19 05:43:40;;;;;;;4.07;2.20;;;;;;;;;;5113886;28;20396;-70
2021/08/19 05:46:09;;;;;;;3.95;1.88;;;;;;;;;;5113187;28;20048;-70
2021/08/19 05:48:35;;;;;;;5.63;2.10;;;;;;;;;;5112611;28;20053;-70
2021/08/19 05:51:02;;;;;;;5.72;2.35;;;;;;;;;;5103445;28;20051;-70
2021/08/19 05:53:28;;;;;;;7.18;2.53;;;;;;;;;;5112217;28;20043;-67
2021/08/19 05:55:55;;;;;;;4.10;2.50;;;;;;;;;;5112495;28;20670;-70
2021/08/19 05:58:21;;;;;;;5.65;2.70;;;;;;;;;;5112606;28;20044;-70
2021/08/19 06:00:48;;;;;;;5.53;2.83;;;;;;;;;;5112975;28;20051;-70
2021/08/19 06:03:16;;;;;;;4.63;3.00;;;;;;;;;;5113964;28;20079;-70
2021/08/19 06:05:42;;;;;;;6.60;3.00;;;;;;;;;;5113402;28;20051;-70
2021/08/19 06:08:09;;;;;;;4.97;3.13;;;;;;;;;;5113628;28;20070;-70
2021/08/19 06:10:35;;;;;;;5.72;2.67;;;;;;;;;;5113487;28;20051;-70
2021/08/19 06:13:02;;;;;;;5.93;2.95;;;;;;;;;;5113522;28;20369;-70
2021/08/19 06:15:28;;;;;;;7.55;3.25;;;;;;;;;;5113096;28;20742;-70
2021/08/19 06:17:55;;;;;;;5.20;2.97;;;;;;;;;;5111777;28;20043;-70
2021/08/19 06:20:23;;;;;;;5.32;2.90;;;;;;;;;;5112573;28;20058;-70
2021/08/19 06:22:51;;;;;;;5.15;2.72;;;;;;;;;;5113193;27;20062;-70
2021/08/19 06:25:18;;;;;;;6.20;2.83;;;;;;;;;;5112931;28;20061;-70
2021/08/19 06:27:44;;;;;;;5.95;3.20;;;;;;;;;;5113144;28;20415;-70
2021/08/19 06:30:12;;;;;;;7.03;2.90;;;;;;;;;;5113232;28;20493;-70
2021/08/19 06:32:38;;;;;;;5.47;2.83;;;;;;;;;;5113129;28;20408;-70
2021/08/19 06:35:06;;;;;;;5.28;2.67;;;;;;;;;;5113099;28;20047;-70
2021/08/19 06:37:34;;;;;;;4.60;2.90;;;;;;;;;;5112846;28;20055;-70
2021/08/19 06:40:01;;;;;;;5.82;2.92;;;;;;;;;;5112942;28;20062;-70
2021/08/19 06:42:27;;;;;;;5.00;2.85;;;;;;;;;;5112720;28;20048;-70
2021/08/19 06:44:54;;;;;;;5.63;2.55;;;;;;;;;;5112878;28;20060;-70
2021/08/19 06:47:20;;;;;;;4.88;3.42;;;;;;;;;;5112159;28;20051;-70
2021/08/19 06:49:46;;;;;;;6.55;3.22;;;;;;;;;;5112535;28;20415;-70
2021/08/19 06:52:13;;;;;;;6.65;2.78;;;;;;;;;;5112545;28;20055;-70
2021/08/19 06:54:41;;;;;;;6.07;3.10;;;;;;;;;;5112655;28;20047;-70
2021/08/19 06:57:07;;;;;;;9.50;3.72;;;;;;;;;;5112714;28;20056;-70
2021/08/19 06:59:34;;;;;;;7.40;2.50;;;;;;;;;;5112718;28;20518;-70
2021/08/19 07:02:00;;;;;;;4.95;2.80;;;;;;;;;;5112044;28;20055;-70
2021/08/19 07:04:27;;;;;;;4.65;2.70;;;;;;;;;;5112448;28;20055;-70
2021/08/19 07:06:53;;;;;;;6.57;2.78;;;;;;;;;;5112191;28;20051;-70
2021/08/19 07:09:20;;;;;;;4.95;2.88;;;;;;;;;;5112512;28;20056;-70
2021/08/19 07:11:49;;;;;;;4.57;2.58;;;;;;;;;;5112301;28;20047;-70
2021/08/19 07:14:15;;;;;;;5.57;2.72;;;;;;;;;;5112375;28;20079;-70
2021/08/19 07:16:42;;;;;;;3.95;2.60;;;;;;;;;;5111890;28;20082;-70
2021/08/19 07:19:08;;;;;;;5.30;2.55;;;;;;;;;;5110800;28;20483;-70
2021/08/19 07:21:35;;;;;;;5.78;2.95;;;;;;;;;;5111960;28;20052;-70
2021/08/19 07:24:01;;;;;;;4.32;2.42;;;;;;;;;;5112140;28;20059;-69
2021/08/19 07:26:27;;;;;;;6.53;2.28;;;;;;;;;;5112169;28;20051;-69
2021/08/19 07:28:56;;;;;;;4.93;2.60;;;;;;;;;;5111623;28;20060;-69
2021/08/19 07:31:22;;;;;;;5.25;2.80;;;;;;;;;;5112117;28;20052;-69
2021/08/19 07:33:49;;;;;;;4.80;2.50;;;;;;;;;;5112453;28;20464;-69
2021/08/19 07:36:15;;;;;;;4.78;2.22;;;;;;;;;;5112112;28;20480;-70
2021/08/19 07:38:42;;;;;;;7.53;2.28;;;;;;;;;;5112101;28;20062;-69
2021/08/19 07:41:08;;;;;;;4.03;1.80;;;;;;;;;;5111821;28;20050;-69
2021/08/19 07:43:35;;;;;;;4.00;2.30;;;;;;;;;;5112139;28;20048;-70
2021/08/19 07:46:03;;;;;;;4.32;2.20;;;;;;;;;;5111650;28;20062;-70
2021/08/19 07:48:29;;;;;;;3.20;2.00;;;;;;;;;;5111839;28;20412;-70
2021/08/19 07:50:56;;;;;;;3.88;1.90;;;;;;;;;;5111800;28;20124;-70
2021/08/19 07:53:23;;;;;;;3.60;1.85;;;;;;;;;;5111606;28;20074;-70
2021/08/19 07:55:49;;;;;;;6.35;1.80;;;;;;;;;;5111645;28;20052;-69
2021/08/19 07:58:16;;;;;;;2.15;1.48;;;;;;;;;;5111736;28;20066;-69
2021/08/19 08:00:42;;;;;;;3.63;1.75;;;;;;;;;;5111921;28;20491;-69
2021/08/19 08:03:10;;;;;;;6.55;2.10;;;;;;;;;;5111936;28;20531;-69
2021/08/19 08:05:36;;;;;;;3.63;1.75;;;;;;;;;;5111944;28;20059;-69
2021/08/19 08:08:04;;;;;;;3.20;1.45;;;;;;;;;;5106868;28;20051;-70
2021/08/19 08:10:31;;;;;;;3.13;1.80;;;;;;;;;;5103637;28;20052;-70
2021/08/19 08:12:58;;;;;;;4.47;1.70;;;;;;;;;;5097550;28;20048;-70
2021/08/19 08:15:25;;;;;;;4.57;1.70;;;;;;;;;;5089999;28;20124;-69
2021/08/19 08:17:51;;;;;;;3.67;1.52;;;;;;;;;;5105698;28;20279;-69
2021/08/19 08:20:19;;;;;;;3.83;1.40;;;;;;;;;;5109470;28;20392;-70
2021/08/19 08:22:46;;;;;;;4.60;1.85;;;;;;;;;;5110470;28;20046;-70
2021/08/19 08:25:13;;;;;;;5.07;2.25;;;;;;;;;;5110389;28;20048;-70
2021/08/19 08:27:51;;;;;;;3.50;1.70;;;;;;;;;;5110496;28;20108;-70
2021/08/19 08:30:18;;;;;;;4.40;1.83;;;;;;;;;;5110666;28;20052;-70
2021/08/19 08:32:44;;;;;;;3.15;1.65;;;;;;;;;;5110371;28;20052;-70
2021/08/19 08:35:12;;;;;;;2.53;1.35;;;;;;;;;;5111147;28;20052;-70
2021/08/19 08:37:40;;;;;;;3.25;1.90;;;;;;;;;;5111088;28;20043;-69
2021/08/19 08:40:08;;;;;;;4.13;1.73;;;;;;;;;;5111652;28;20051;-69
2021/08/19 08:42:35;;;;;;;5.38;1.65;;;;;;;;;;5115310;28;20047;-69
2021/08/19 08:45:01;;;;;;;3.78;1.58;;;;;;;;;;5115255;28;20044;-69
2021/08/19 08:47:32;;;;;;;3.63;1.23;;;;;;;;;;5115050;28;20427;-69
2021/08/19 08:49:59;;;;;;;3.30;1.67;;;;;;;;;;5114205;28;20134;-69
2021/08/19 08:52:25;;;;;;;3.78;1.55;;;;;;;;;;5114679;28;20048;-70
2021/08/19 08:54:53;;;;;;;3.40;1.70;;;;;;;;;;5114602;28;20051;-69
2021/08/19 08:57:20;;;;;;;4.93;1.70;;;;;;;;;;5114719;28;20097;-69
2021/08/19 08:59:46;;;;;;;3.20;1.55;;;;;;;;;;5114822;28;20055;-69
2021/08/19 09:02:13;;;;;;;2.28;1.33;;;;;;;;;;5114868;28;20051;-69
2021/08/19 09:04:39;;;;;;;3.42;2.00;;;;;;;;;;5114528;28;20043;-70
2021/08/19 09:07:07;;;;;;;2.60;1.40;;;;;;;;;;5114539;28;20056;-70
2021/08/19 09:09:34;;;;;;;2.80;1.30;;;;;;;;;;5114639;27;20043;-70
2021/08/19 09:12:06;;;;;;;3.13;1.30;;;;;;;;;;5114725;28;20491;-69
2021/08/19 09:14:40;;;;;;;2.55;1.27;;;;;;;;;;5114446;28;20412;-69
2021/08/19 09:17:07;;;;;;;4.33;2.00;;;;;;;;;;5114117;28;20424;-70
2021/08/19 09:19:36;;;;;;;3.65;1.40;;;;;;;;;;5113388;28;20047;-70
2021/08/19 09:22:04;;;;;;;3.15;1.50;;;;;;;;;;5113618;28;20050;-70
2021/08/19 09:24:32;;;;;;;3.15;1.20;;;;;;;;;;5114387;28;20488;-69
2021/08/19 09:27:11;;;;;;;2.83;1.25;;;;;;;;;;5114483;28;20047;-70
2021/08/19 09:29:37;;;;;;;2.58;1.30;;;;;;;;;;5114289;28;20044;-70
2021/08/19 09:32:10;;;;;;;2.08;1.50;;;;;;;;;;5114132;28;20055;-69
2021/08/19 09:34:37;;;;;;;2.13;1.20;;;;;;;;;;5114072;28;20047;-70
2021/08/19 09:37:05;;;;;;;4.22;1.30;;;;;;;;;;5111274;28;20379;-70
2021/08/19 09:39:36;;;;;;;2.58;1.10;;;;;;;;;;5107586;28;20104;-70
2021/08/19 09:42:03;;;;;;;2.60;1.20;;;;;;;;;;5104674;28;20063;-70
2021/08/19 09:44:33;;;;;;;4.65;1.17;;;;;;;;;;5105794;28;20044;-70
2021/08/19 09:47:01;;;;;;;3.53;1.70;;;;;;;;;;5107303;28;20105;-70
2021/08/19 09:49:29;;;;;;;3.28;1.77;;;;;;;;;;5106660;28;20074;-70
2021/08/19 09:52:00;;;;;;;2.67;1.30;;;;;;;;;;5107736;28;20438;-70
2021/08/19 09:54:30;;;;;;;2.03;1.23;;;;;;;;;;5107796;28;20384;-70
2021/08/19 09:56:56;;;;;;;2.25;1.10;;;;;;;;;;5108617;28;20074;-69
2021/08/19 09:59:24;;;;;;;4.03;1.05;;;;;;;;;;5108154;28;20055;-70
2021/08/19 10:01:53;;;;;;;2.35;1.17;;;;;;;;;;5111425;28;20044;-70
2021/08/19 10:04:21;;;;;;;2.15;0.98;;;;;;;;;;5105173;28;20044;-70
2021/08/19 10:06:48;;;;;;;2.83;1.35;;;;;;;;;;5093015;28;20044;-70
2021/08/19 10:09:14;;;;;;;4.20;1.73;;;;;;;;;;5093273;28;20404;-70
2021/08/19 10:11:43;;;;;;;3.13;1.30;;;;;;;;;;5092765;28;20141;-70
2021/08/19 10:14:13;;;;;;;2.72;1.30;;;;;;;;;;5093256;28;20404;-67
2021/08/19 10:16:41;;;;;;;2.72;1.40;;;;;;;;;;5098682;28;20434;-69
2021/08/19 10:19:10;;;;;;;2.42;1.60;;;;;;;;;;5113222;28;20488;-70
2021/08/19 10:21:40;;;;;;;2.50;1.27;;;;;;;;;;5111767;28;20051;-70
2021/08/19 10:24:07;;;;;;;5.50;1.77;;;;;;;;;;5106797;28;20051;-70
2021/08/19 10:26:34;;;;;;;5.25;1.52;;;;;;;;;;5113206;28;20067;-70
2021/08/19 10:29:02;;;;;;;6.80;1.50;;;;;;;;;;5113295;28;20051;-70
2021/08/19 10:31:56;;;;;;;2.03;1.30;;;;;;;;;;5112946;28;20225;-70
2021/08/19 10:34:58;;;;;;;2.80;1.50;;;;;;;;;;5108961;28;20048;-70
2021/08/19 10:37:57;;;;;;;5.85;1.88;;;;;;;;;;5110714;28;20047;-70
2021/08/19 10:40:31;;;;;;;4.18;1.60;;;;;;;;;;5110783;28;20047;-70
2021/08/19 10:42:59;;;;;;;2.28;1.30;;;;;;;;;;5112110;28;20052;-70
2021/08/19 10:45:40;;;;;;;4.13;1.75;;;;;;;;;;5112854;28;20043;-70
2021/08/19 10:48:21;;;;;;;3.58;1.27;;;;;;;;;;5112914;28;20517;-70
2021/08/19 10:50:50;;;;;;;3.47;1.50;;;;;;;;;;5112348;28;20043;-70
2021/08/19 10:53:18;;;;;;;4.20;1.67;;;;;;;;;;5112491;28;20548;-70
2021/08/19 10:55:45;;;;;;;2.80;1.50;;;;;;;;;;5112392;28;20047;-70
2021/08/19 10:58:23;;;;;;;4.15;1.58;;;;;;;;;;5112741;28;20051;-70
2021/08/19 11:00:50;;;;;;;2.72;1.45;;;;;;;;;;5112461;28;20047;-70
2021/08/19 11:03:45;;;;;;;2.80;1.38;;;;;;;;;;5111958;28;20048;-70
2021/08/19 11:06:16;;;;;;;5.22;1.73;;;;;;;;;;5112284;28;20050;-70
2021/08/19 11:08:52;;;;;;;7.53;1.63;;;;;;;;;;5112601;28;20048;-70
2021/08/19 11:11:33;;;;;;;4.70;1.70;;;;;;;;;;5112037;28;20050;-70
2021/08/19 11:14:08;;;;;;;2.10;1.08;;;;;;;;;;5112637;28;20047;-70
2021/08/19 11:16:35;;;;;;;3.03;1.33;;;;;;;;;;5106830;28;20129;-70
2021/08/19 11:19:12;;;;;;;2.67;1.50;;;;;;;;;;5106756;28;20043;-70
2021/08/19 11:21:40;;;;;;;2.17;1.27;;;;;;;;;;5107786;28;20055;-70
2021/08/19 11:24:09;;;;;;;2.63;1.65;;;;;;;;;;5109161;28;20071;-70
2021/08/19 11:26:36;;;;;;;2.60;1.40;;;;;;;;;;5111893;28;20105;-70
2021/08/19 11:29:03;;;;;;;3.95;1.55;;;;;;;;;;5112406;28;20620;-70
2021/08/19 11:31:29;;;;;;;2.85;1.30;;;;;;;;;;5111796;28;20044;-69
2021/08/19 11:33:59;;;;;;;2.20;1.20;;;;;;;;;;5107797;28;20044;-70
2021/08/19 11:36:26;;;;;;;1.55;1.00;;;;;;;;;;5091821;28;20477;-67
2021/08/19 11:38:57;;;;;;;1.80;1.08;;;;;;;;;;5092018;28;20492;-67
2021/08/19 11:41:24;;;;;;;2.92;1.42;;;;;;;;;;5105479;28;20141;-68
2021/08/19 11:43:51;;;;;;;2.15;1.25;;;;;;;;;;5126802;28;20046;-68
2021/08/19 11:46:20;;;;;;;2.08;1.13;;;;;;;;;;5132193;28;20051;-69
2021/08/19 11:48:51;;;;;;;3.75;1.65;;;;;;;;;;5132491;27;20423;-68
2021/08/19 11:51:29;;;;;;;3.58;1.25;;;;;;;;;;5132545;28;20125;-69
2021/08/19 11:54:01;;;;;;;3.03;1.30;;;;;;;;;;5120076;28;20050;-69
2021/08/19 11:56:30;;;;;;;4.28;1.23;;;;;;;;;;5102556;28;20051;-68
2021/08/19 11:59:04;;;;;;;4.80;1.10;;;;;;;;;;5091501;28;20044;-68
2021/08/19 12:01:31;;;;;;;2.33;1.13;;;;;;;;;;5091720;28;20385;-68
2021/08/19 12:03:58;;;;;;;2.50;1.30;;;;;;;;;;5091030;28;20056;-69
2021/08/19 12:06:27;;;;;;;3.50;1.27;;;;;;;;;;5091202;28;20495;-69
2021/08/19 12:08:54;;;;;;;2.30;1.20;;;;;;;;;;5098556;28;20052;-69
2021/08/19 12:11:23;;;;;;;6.00;1.52;;;;;;;;;;5107492;28;20503;-69
2021/08/19 12:13:51;;;;;;;3.05;1.15;;;;;;;;;;5102968;28;20499;-70
2021/08/19 12:16:20;;;;;;;2.55;1.42;;;;;;;;;;5115648;28;20051;-68
2021/08/19 12:19:06;;;;;;;1.85;1.15;;;;;;;;;;5115793;28;20536;-69
2021/08/19 12:21:33;;;;;;;2.20;1.13;;;;;;;;;;5115434;28;20051;-69
2021/08/19 12:24:12;;;;;;;3.22;1.60;;;;;;;;;;5113525;28;20043;-69
2021/08/19 12:26:40;;;;;;;2.45;1.23;;;;;;;;;;5108431;28;20047;-69
2021/08/19 12:29:07;;;;;;;2.40;1.13;;;;;;;;;;5108782;28;20411;-69
2021/08/19 12:31:48;;;;;;;3.03;1.23;;;;;;;;;;5106966;27;20052;-69
2021/08/19 12:34:15;;;;;;;3.25;1.23;;;;;;;;;;5111988;27;20054;-69
2021/08/19 12:36:43;;;;;;;3.58;1.55;;;;;;;;;;5110650;28;20048;-68
2021/08/19 12:39:21;;;;;;;1.48;1.00;;;;;;;;;;5109435;28;20035;-68
2021/08/19 12:41:50;;;;;;;4.15;1.40;;;;;;;;;;5094902;28;20055;-69
2021/08/19 12:44:19;;;;;;;2.90;1.30;;;;;;;;;;5094768;28;20079;-70
2021/08/19 12:46:47;;;;;;;4.28;1.10;;;;;;;;;;5094687;28;20055;-69
2021/08/19 12:49:31;;;;;;;1.83;1.05;;;;;;;;;;5094447;28;20059;-69
2021/08/19 12:52:14;;;;;;;2.05;1.20;;;;;;;;;;5094531;28;20059;-69
2021/08/19 12:54:40;;;;;;;2.83;1.77;;;;;;;;;;5111182;28;20048;-68
2021/08/19 12:57:08;;;;;;;5.57;1.25;;;;;;;;;;5108151;27;20048;-69
2021/08/19 12:59:35;;;;;;;7.00;1.42;;;;;;;;;;5113369;28;20131;-69
2021/08/19 13:02:01;;;;;;;2.17;1.17;;;;;;;;;;5113522;28;20048;-68
2021/08/19 13:04:29;;;;;;;3.08;1.50;;;;;;;;;;5110951;28;20055;-68
2021/08/19 13:06:55;;;;;;;3.58;1.17;;;;;;;;;;5112555;28;20040;-68
2021/08/19 13:09:22;;;;;;;3.75;1.13;;;;;;;;;;5112809;28;20058;-68
2021/08/19 13:11:48;;;;;;;4.82;1.30;;;;;;;;;;5113141;28;20051;-70
2021/08/19 13:14:16;;;;;;;4.13;1.27;;;;;;;;;;5113387;28;20043;-69
2021/08/19 13:16:42;;;;;;;4.63;1.70;;;;;;;;;;5113068;28;20387;-68
2021/08/19 13:19:10;;;;;;;3.42;1.33;;;;;;;;;;5112626;28;20063;-68
2021/08/19 13:21:36;;;;;;;2.25;1.13;;;;;;;;;;5112514;28;20059;-68
2021/08/19 13:24:03;;;;;;;3.10;1.33;;;;;;;;;;5110674;28;20047;-69
2021/08/19 13:26:31;;;;;;;2.13;0.98;;;;;;;;;;5111241;28;20389;-69
2021/08/19 13:28:58;;;;;;;3.58;1.58;;;;;;;;;;5112978;28;20054;-69
2021/08/19 13:31:26;;;;;;;2.92;1.17;;;;;;;;;;5112121;28;20051;-69
2021/08/19 13:33:53;;;;;;;4.32;1.30;;;;;;;;;;5111203;28;20047;-69
2021/08/19 13:36:20;;;;;;;2.90;1.10;;;;;;;;;;5110898;28;20035;-68
2021/08/19 13:38:46;;;;;;;5.60;1.85;;;;;;;;;;5110929;28;20044;-68
2021/08/19 13:41:12;;;;;;;4.60;1.75;;;;;;;;;;5109327;28;20043;-68
2021/08/19 13:43:39;;;;;;;6.05;1.67;;;;;;;;;;5112451;28;20054;-68
2021/08/19 13:46:06;;;;;;;4.22;1.60;;;;;;;;;;5112387;28;20448;-68
2021/08/19 13:48:34;;;;;;;4.57;1.35;;;;;;;;;;5112222;28;20044;-68
2021/08/19 13:51:00;;;;;;;4.28;1.52;;;;;;;;;;5111900;28;20050;-68
2021/08/19 13:53:27;;;;;;;3.28;1.23;;;;;;;;;;5112509;28;20067;-68
2021/08/19 13:55:53;;;;;;;7.93;1.50;;;;;;;;;;5113151;28;20043;-68
2021/08/19 13:58:19;;;;;;;3.35;1.45;;;;;;;;;;5113556;28;20054;-68
2021/08/19 14:00:46;;;;;;;4.82;1.67;;;;;;;;;;5112228;28;20047;-68
2021/08/19 14:03:13;;;;;;;2.03;1.20;;;;;;;;;;5113284;28;20046;-68
2021/08/19 14:05:41;;;;;;;2.85;1.50;;;;;;;;;;5111220;28;20044;-68
2021/08/19 14:08:07;;;;;;;3.65;1.50;;;;;;;;;;5109945;27;20040;-66
2021/08/19 14:10:34;;;;;;;2.75;1.48;;;;;;;;;;5109091;28;20048;-69
2021/08/19 14:13:00;;;;;;;3.75;1.70;;;;;;;;;;5114464;27;20049;-68
2021/08/19 14:15:26;;;;;;;2.70;1.10;;;;;;;;;;5115681;27;20058;-68
2021/08/19 14:17:53;;;;;;;2.08;1.35;;;;;;;;;;5122391;27;20050;-68
2021/08/19 14:20:20;;;;;;;3.55;1.50;;;;;;;;;;5118555;27;20048;-68
2021/08/19 14:22:48;;;;;;;4.85;1.15;;;;;;;;;;5120205;27;20063;-68
2021/08/19 14:25:14;;;;;;;3.72;1.40;;;;;;;;;;5118431;27;20054;-68
2021/08/19 14:27:42;;;;;;;3.65;1.52;;;;;;;;;;5122063;27;20043;-66
2021/08/19 14:30:10;;;;;;;4.88;1.30;;;;;;;;;;5119250;27;20047;-68
2021/08/19 14:32:36;;;;;;;2.95;1.40;;;;;;;;;;5121136;27;20097;-68
2021/08/19 14:35:03;;;;;;;3.55;1.60;;;;;;;;;;5118322;27;20047;-68
2021/08/19 14:37:30;;;;;;;4.97;1.42;;;;;;;;;;5116293;27;20453;-68
2021/08/19 14:39:58;;;;;;;3.35;1.60;;;;;;;;;;5117785;27;20056;-68
2021/08/19 14:42:24;;;;;;;3.72;1.42;;;;;;;;;;5108217;28;20052;-68
2021/08/19 14:44:50;;;;;;;3.80;1.30;;;;;;;;;;5110176;27;20047;-68
2021/08/19 14:47:17;;;;;;;1.55;1.08;;;;;;;;;;5116328;27;20054;-68